sensor_id;sensor_type;location;lat;lon;timestamp;pressure;altitude;pressure_sealevel;temperature;humidity
69187;BME280;56301;56.864;60.554;2023-04-02T00:02:45;99214.31;;;25.63;38.51
69187;BME280;56301;56.864;60.554;2023-04-02T00:07:36;99220.56;;;25.63;38.73
69187;BME280;56301;56.864;60.554;2023-04-02T00:10:00;99217.88;;;25.63;38.57
69187;BME280;56301;56.864;60.554;2023-04-02T00:12:22;99226.88;;;25.64;38.18
69187;BME280;56301;56.864;60.554;2023-04-02T00:14:46;99220.56;;;25.63;38.95
69187;BME280;56301;56.864;60.554;2023-04-02T00:17:09;99226.00;;;25.63;38.65
69187;BME280;56301;56.864;60.554;2023-04-02T00:21:57;99221.59;;;25.62;38.81
69187;BME280;56301;56.864;60.554;2023-04-02T00:24:20;99224.31;;;25.62;39.11
69187;BME280;56301;56.864;60.554;2023-04-02T00:26:44;99225.16;;;25.63;38.39
69187;BME280;56301;56.864;60.554;2023-04-02T00:29:08;99224.31;;;25.62;38.86
69187;BME280;56301;56.864;60.554;2023-04-02T00:31:31;99223.28;;;25.63;38.11
69187;BME280;56301;56.864;60.554;2023-04-02T00:33:54;99227.72;;;25.64;38.47
69187;BME280;56301;56.864;60.554;2023-04-02T00:36:18;99227.72;;;25.64;39.21
69187;BME280;56301;56.864;60.554;2023-04-02T00:38:41;99227.72;;;25.64;38.66
69187;BME280;56301;56.864;60.554;2023-04-02T00:41:05;99228.72;;;25.63;38.65
69187;BME280;56301;56.864;60.554;2023-04-02T00:43:29;99226.00;;;25.63;38.41
69187;BME280;56301;56.864;60.554;2023-04-02T00:45:54;99230.41;;;25.64;38.56
69187;BME280;56301;56.864;60.554;2023-04-02T00:50:42;99235.84;;;25.64;38.95
69187;BME280;56301;56.864;60.554;2023-04-02T00:53:08;99228.72;;;25.63;38.83
69187;BME280;56301;56.864;60.554;2023-04-02T00:55:36;99230.56;;;25.63;38.34
69187;BME280;56301;56.864;60.554;2023-04-02T00:58:00;99226.00;;;25.63;38.42
69187;BME280;56301;56.864;60.554;2023-04-02T01:05:27;99222.28;;;25.64;38.86
69187;BME280;56301;56.864;60.554;2023-04-02T01:12:49;99233.13;;;25.64;39.02
69187;BME280;56301;56.864;60.554;2023-04-02T01:15:23;99222.28;;;25.64;38.73
69187;BME280;56301;56.864;60.554;2023-04-02T01:20:33;99231.81;;;25.60;39.29
69187;BME280;56301;56.864;60.554;2023-04-02T01:23:06;99224.66;;;25.59;39.03
69187;BME280;56301;56.864;60.554;2023-04-02T01:25:37;99233.00;;;25.58;39.43
69187;BME280;56301;56.864;60.554;2023-04-02T01:28:05;99225.88;;;25.57;39.28
69187;BME280;56301;56.864;60.554;2023-04-02T01:30:31;99234.03;;;25.57;39.41
69187;BME280;56301;56.864;60.554;2023-04-02T01:32:55;99224.88;;;25.58;38.83
69187;BME280;56301;56.864;60.554;2023-04-02T01:35:18;99233.81;;;25.58;39.44
69187;BME280;56301;56.864;60.554;2023-04-02T01:45:18;99233.81;;;25.58;39.41
69187;BME280;56301;56.864;60.554;2023-04-02T01:47:42;99232.16;;;25.57;39.34
69187;BME280;56301;56.864;60.554;2023-04-02T01:52:47;99235.84;;;25.56;39.24
69187;BME280;56301;56.864;60.554;2023-04-02T01:55:11;99232.31;;;25.56;38.70
69187;BME280;56301;56.864;60.554;2023-04-02T01:57:33;99234.84;;;25.57;39.25
69187;BME280;56301;56.864;60.554;2023-04-02T01:59:57;99233.00;;;25.58;38.93
69187;BME280;56301;56.864;60.554;2023-04-02T02:02:20;99241.28;;;25.56;38.87
69187;BME280;56301;56.864;60.554;2023-04-02T02:04:42;99245.84;;;25.56;38.61
69187;BME280;56301;56.864;60.554;2023-04-02T02:07:05;99241.28;;;25.56;39.20
69187;BME280;56301;56.864;60.554;2023-04-02T02:09:33;99252.13;;;25.56;38.83
69187;BME280;56301;56.864;60.554;2023-04-02T02:11:57;99242.16;;;25.57;38.75
69187;BME280;56301;56.864;60.554;2023-04-02T02:14:23;99246.69;;;25.56;39.33
69187;BME280;56301;56.864;60.554;2023-04-02T02:16:46;99252.13;;;25.56;39.53
69187;BME280;56301;56.864;60.554;2023-04-02T02:19:18;99249.41;;;25.56;38.93
69187;BME280;56301;56.864;60.554;2023-04-02T02:21:43;99260.25;;;25.56;39.35
69187;BME280;56301;56.864;60.554;2023-04-02T02:24:13;99259.25;;;25.57;39.79
69187;BME280;56301;56.864;60.554;2023-04-02T02:26:38;99256.53;;;25.57;39.79
69187;BME280;56301;56.864;60.554;2023-04-02T02:29:02;99253.81;;;25.57;39.73
69187;BME280;56301;56.864;60.554;2023-04-02T02:31:28;99248.41;;;25.57;39.33
69187;BME280;56301;56.864;60.554;2023-04-02T02:33:59;99251.13;;;25.57;39.76
69187;BME280;56301;56.864;60.554;2023-04-02T02:36:30;99259.25;;;25.57;39.79
69187;BME280;56301;56.864;60.554;2023-04-02T02:39:00;99260.09;;;25.58;39.63
69187;BME280;56301;56.864;60.554;2023-04-02T02:46:32;99268.88;;;25.60;39.21
69187;BME280;56301;56.864;60.554;2023-04-02T02:48:57;99261.75;;;25.59;39.46
69187;BME280;56301;56.864;60.554;2023-04-02T02:51:22;99265.50;;;25.58;39.90
69187;BME280;56301;56.864;60.554;2023-04-02T02:53:49;99268.88;;;25.60;39.12
69187;BME280;56301;56.864;60.554;2023-04-02T02:56:14;99264.31;;;25.60;39.22
69187;BME280;56301;56.864;60.554;2023-04-02T02:58:39;99267.88;;;25.61;38.97
69187;BME280;56301;56.864;60.554;2023-04-02T03:01:10;99259.75;;;25.61;38.91
69187;BME280;56301;56.864;60.554;2023-04-02T03:03:35;99256.84;;;25.62;39.69
69187;BME280;56301;56.864;60.554;2023-04-02T03:06:04;99260.56;;;25.61;39.75
69187;BME280;56301;56.864;60.554;2023-04-02T03:08:39;99264.13;;;25.62;39.15
69187;BME280;56301;56.864;60.554;2023-04-02T03:11:11;99261.22;;;25.63;39.89
69187;BME280;56301;56.864;60.554;2023-04-02T03:13:37;99261.22;;;25.63;39.49
69187;BME280;56301;56.864;60.554;2023-04-02T03:23:39;99260.38;;;25.63;39.96
69187;BME280;56301;56.864;60.554;2023-04-02T03:28:40;99268.34;;;25.64;39.49
69187;BME280;56301;56.864;60.554;2023-04-02T03:31:05;99275.66;;;25.64;39.42
69187;BME280;56301;56.864;60.554;2023-04-02T03:33:33;99272.75;;;25.65;39.84
69187;BME280;56301;56.864;60.554;2023-04-02T03:36:32;99281.38;;;25.69;38.75
69187;BME280;56301;56.864;60.554;2023-04-02T03:38:48;99280.53;;;25.68;38.96
69187;BME280;56301;56.864;60.554;2023-04-02T03:41:15;99280.34;;;25.70;39.25
69187;BME280;56301;56.864;60.554;2023-04-02T03:43:39;99280.34;;;25.70;39.13
69187;BME280;56301;56.864;60.554;2023-04-02T03:48:32;99274.06;;;25.69;39.62
69187;BME280;56301;56.864;60.554;2023-04-02T03:51:02;99275.94;;;25.69;38.65
69187;BME280;56301;56.864;60.554;2023-04-02T03:53:28;99276.13;;;25.67;39.31
69187;BME280;56301;56.864;60.554;2023-04-02T03:55:51;99282.41;;;25.68;39.34
69187;BME280;56301;56.864;60.554;2023-04-02T03:58:25;99277.13;;;25.66;38.95
69187;BME280;56301;56.864;60.554;2023-04-02T04:00:51;99278.16;;;25.65;39.44
69187;BME280;56301;56.864;60.554;2023-04-02T04:03:29;99277.13;;;25.66;39.58
69187;BME280;56301;56.864;60.554;2023-04-02T04:06:01;99279.84;;;25.66;39.40
69187;BME280;56301;56.864;60.554;2023-04-02T04:08:49;99276.97;;;25.68;39.05
69187;BME280;56301;56.864;60.554;2023-04-02T04:11:12;99279.50;;;25.69;38.66
69187;BME280;56301;56.864;60.554;2023-04-02T04:13:45;99274.06;;;25.69;39.44
69187;BME280;56301;56.864;60.554;2023-04-02T04:16:11;99281.19;;;25.70;39.09
69187;BME280;56301;56.864;60.554;2023-04-02T04:21:12;99277.47;;;25.72;39.56
69187;BME280;56301;56.864;60.554;2023-04-02T04:23:37;99280.19;;;25.72;39.59
69187;BME280;56301;56.864;60.554;2023-04-02T04:26:18;99276.63;;;25.71;39.87
69187;BME280;56301;56.864;60.554;2023-04-02T04:29:30;99279.50;;;25.69;40.39
69187;BME280;56301;56.864;60.554;2023-04-02T04:31:36;99280.19;;;25.72;39.68
69187;BME280;56301;56.864;60.554;2023-04-02T04:34:04;99279.97;;;25.73;39.18
69187;BME280;56301;56.864;60.554;2023-04-02T04:36:32;99280.81;;;25.74;39.26
69187;BME280;56301;56.864;60.554;2023-04-02T04:39:16;99279.16;;;25.73;39.72
69187;BME280;56301;56.864;60.554;2023-04-02T04:41:44;99285.38;;;25.81;39.69
69187;BME280;56301;56.864;60.554;2023-04-02T04:44:16;99276.75;;;25.86;39.76
69187;BME280;56301;56.864;60.554;2023-04-02T04:46:46;99277.53;;;25.95;40.59
69187;BME280;56301;56.864;60.554;2023-04-02T04:49:17;99275.97;;;26.00;40.36
69187;BME280;56301;56.864;60.554;2023-04-02T04:51:43;99278.97;;;26.05;41.25
69187;BME280;56301;56.864;60.554;2023-04-02T04:54:09;99277.44;;;26.11;40.21
69187;BME280;56301;56.864;60.554;2023-04-02T04:56:33;99270.63;;;26.15;40.72
69187;BME280;56301;56.864;60.554;2023-04-02T05:04:00;99272.06;;;26.26;40.19
69187;BME280;56301;56.864;60.554;2023-04-02T05:08:59;99269.63;;;26.31;39.21
69187;BME280;56301;56.864;60.554;2023-04-02T05:11:25;99274.69;;;26.34;39.48
69187;BME280;56301;56.864;60.554;2023-04-02T05:13:51;99267.22;;;26.36;39.01
69187;BME280;56301;56.864;60.554;2023-04-02T05:21:23;99268.00;;;26.45;38.89
69187;BME280;56301;56.864;60.554;2023-04-02T05:23:53;99264.25;;;26.46;38.92
69187;BME280;56301;56.864;60.554;2023-04-02T05:26:19;99270.88;;;26.51;38.83
69187;BME280;56301;56.864;60.554;2023-04-02T05:28:50;99266.06;;;26.53;39.05
69187;BME280;56301;56.864;60.554;2023-04-02T05:31:37;99270.31;;;26.56;38.33
69187;BME280;56301;56.864;60.554;2023-04-02T05:33:59;99271.63;;;26.60;38.59
69187;BME280;56301;56.864;60.554;2023-04-02T05:36:26;99275.84;;;26.62;38.38
69187;BME280;56301;56.864;60.554;2023-04-02T05:38:52;99272.94;;;26.64;37.89
69187;BME280;56301;56.864;60.554;2023-04-02T05:41:26;99269.03;;;26.67;38.53
69187;BME280;56301;56.864;60.554;2023-04-02T05:43:53;99269.66;;;26.69;38.11
69187;BME280;56301;56.864;60.554;2023-04-02T05:46:19;99262.19;;;26.71;37.81
69187;BME280;56301;56.864;60.554;2023-04-02T05:48:48;99261.81;;;26.74;37.24
69187;BME280;56301;56.864;60.554;2023-04-02T05:51:18;99266.06;;;26.76;37.75
69187;BME280;56301;56.864;60.554;2023-04-02T05:53:48;99269.41;;;26.78;37.11
69187;BME280;56301;56.864;60.554;2023-04-02T05:56:29;99264.44;;;26.82;37.01
69187;BME280;56301;56.864;60.554;2023-04-02T05:59:03;99270.56;;;26.84;36.68
69187;BME280;56301;56.864;60.554;2023-04-02T06:09:06;99281.31;;;26.92;36.69
69187;BME280;56301;56.864;60.554;2023-04-02T06:11:31;99273.19;;;26.92;36.86
69187;BME280;56301;56.864;60.554;2023-04-02T06:14:00;99280.28;;;26.93;35.91
69187;BME280;56301;56.864;60.554;2023-04-02T06:16:24;99281.97;;;26.94;36.67
69187;BME280;56301;56.864;60.554;2023-04-02T06:18:47;99270.09;;;26.95;36.64
69187;BME280;56301;56.864;60.554;2023-04-02T06:21:13;99280.75;;;26.97;36.25
69187;BME280;56301;56.864;60.554;2023-04-02T06:23:41;99282.28;;;26.99;36.66
69187;BME280;56301;56.864;60.554;2023-04-02T06:26:18;99275.63;;;27.02;36.14
69187;BME280;56301;56.864;60.554;2023-04-02T06:28:49;99276.09;;;27.05;36.32
69187;BME280;56301;56.864;60.554;2023-04-02T06:31:42;99270.28;;;27.08;35.62
69187;BME280;56301;56.864;60.554;2023-04-02T06:34:22;99275.69;;;27.08;35.62
69187;BME280;56301;56.864;60.554;2023-04-02T06:37:22;99278.41;;;27.08;36.00
69187;BME280;56301;56.864;60.554;2023-04-02T06:39:52;99274.50;;;27.11;35.82
69187;BME280;56301;56.864;60.554;2023-04-02T06:42:16;99270.78;;;27.12;35.04
69187;BME280;56301;56.864;60.554;2023-04-02T06:44:55;99281.09;;;27.17;35.00
69187;BME280;56301;56.864;60.554;2023-04-02T06:47:42;99272.53;;;27.20;35.72
69187;BME280;56301;56.864;60.554;2023-04-02T06:50:13;99265.06;;;27.22;34.94
69187;BME280;56301;56.864;60.554;2023-04-02T06:52:50;99260.09;;;27.25;35.19
69187;BME280;56301;56.864;60.554;2023-04-02T06:57:42;99270.22;;;27.31;35.83
69187;BME280;56301;56.864;60.554;2023-04-02T07:00:08;99263.94;;;27.31;35.15
69187;BME280;56301;56.864;60.554;2023-04-02T07:02:40;99259.81;;;27.35;35.04
69187;BME280;56301;56.864;60.554;2023-04-02T07:05:06;99254.00;;;27.38;35.15
69187;BME280;56301;56.864;60.554;2023-04-02T07:07:31;99254.00;;;27.38;35.38
69187;BME280;56301;56.864;60.554;2023-04-02T07:09:56;99247.34;;;27.41;34.98
69187;BME280;56301;56.864;60.554;2023-04-02T07:12:23;99250.72;;;27.43;35.07
69187;BME280;56301;56.864;60.554;2023-04-02T07:14:46;99252.03;;;27.47;34.42
69187;BME280;56301;56.864;60.554;2023-04-02T07:17:12;99248.25;;;27.48;35.26
69187;BME280;56301;56.864;60.554;2023-04-02T07:19:36;99249.75;;;27.50;35.62
69187;BME280;56301;56.864;60.554;2023-04-02T07:21:58;99224.97;;;27.39;35.22
69187;BME280;56301;56.864;60.554;2023-04-02T07:24:26;99244.59;;;27.55;35.12
69187;BME280;56301;56.864;60.554;2023-04-02T07:26:49;99250.03;;;27.55;35.13
69187;BME280;56301;56.864;60.554;2023-04-02T07:29:12;99246.28;;;27.56;35.95
69187;BME280;56301;56.864;60.554;2023-04-02T07:31:36;99251.31;;;27.59;35.48
69187;BME280;56301;56.864;60.554;2023-04-02T07:33:59;99245.03;;;27.59;35.28
69187;BME280;56301;56.864;60.554;2023-04-02T07:36:22;99245.50;;;27.63;34.89
69187;BME280;56301;56.864;60.554;2023-04-02T07:38:45;99244.28;;;27.65;35.41
69187;BME280;56301;56.864;60.554;2023-04-02T07:41:08;99243.06;;;27.68;35.79
69187;BME280;56301;56.864;60.554;2023-04-02T07:43:31;99237.25;;;27.71;35.38
69187;BME280;56301;56.864;60.554;2023-04-02T07:45:54;99235.31;;;27.65;34.05
69187;BME280;56301;56.864;60.554;2023-04-02T07:48:16;99232.03;;;27.54;35.27
69187;BME280;56301;56.864;60.554;2023-04-02T07:50:39;99245.38;;;27.49;35.08
69187;BME280;56301;56.864;60.554;2023-04-02T07:53:02;99238.44;;;27.47;34.89
69187;BME280;56301;56.864;60.554;2023-04-02T07:55:24;99242.38;;;27.44;35.56
69187;BME280;56301;56.864;60.554;2023-04-02T07:57:51;99240.41;;;27.53;36.35
69187;BME280;56301;56.864;60.554;2023-04-02T08:00:14;99236.19;;;26.91;36.02
69187;BME280;56301;56.864;60.554;2023-04-02T08:02:37;99245.72;;;26.11;36.84
69187;BME280;56301;56.864;60.554;2023-04-02T08:05:00;99240.84;;;25.76;37.24
69187;BME280;56301;56.864;60.554;2023-04-02T08:07:23;99229.13;;;25.52;39.45
69187;BME280;56301;56.864;60.554;2023-04-02T08:09:45;99231.72;;;25.37;40.00
69187;BME280;56301;56.864;60.554;2023-04-02T08:12:10;99228.47;;;25.11;36.25
69187;BME280;56301;56.864;60.554;2023-04-02T08:14:34;99221.59;;;24.84;35.32
69187;BME280;56301;56.864;60.554;2023-04-02T08:16:56;99229.75;;;24.67;34.95
69187;BME280;56301;56.864;60.554;2023-04-02T08:19:19;99223.66;;;24.57;35.06
69187;BME280;56301;56.864;60.554;2023-04-02T08:21:41;99224.72;;;24.48;35.40
69187;BME280;56301;56.864;60.554;2023-04-02T08:24:04;99221.31;;;24.46;38.28
69187;BME280;56301;56.864;60.554;2023-04-02T08:26:27;99223.84;;;24.56;38.83
69187;BME280;56301;56.864;60.554;2023-04-02T08:28:49;99223.00;;;24.55;39.50
69187;BME280;56301;56.864;60.554;2023-04-02T08:31:12;99225.69;;;24.63;39.76
69187;BME280;56301;56.864;60.554;2023-04-02T08:33:34;99218.91;;;24.67;39.19
69187;BME280;56301;56.864;60.554;2023-04-02T08:35:57;99216.88;;;24.61;39.63
69187;BME280;56301;56.864;60.554;2023-04-02T08:38:19;99211.97;;;24.73;39.88
69187;BME280;56301;56.864;60.554;2023-04-02T08:40:43;99207.06;;;24.77;39.96
69187;BME280;56301;56.864;60.554;2023-04-02T08:47:55;99203.34;;;24.61;39.45
69187;BME280;56301;56.864;60.554;2023-04-02T08:52:43;99209.78;;;24.60;38.83
69187;BME280;56301;56.864;60.554;2023-04-02T08:55:16;99201.38;;;24.55;38.35
69187;BME280;56301;56.864;60.554;2023-04-02T08:57:56;99191.69;;;24.61;39.42
69187;BME280;56301;56.864;60.554;2023-04-02T09:00:25;99206.06;;;24.69;41.03
69187;BME280;56301;56.864;60.554;2023-04-02T09:02:51;99207.59;;;24.64;41.08
69187;BME280;56301;56.864;60.554;2023-04-02T09:05:19;99200.00;;;24.59;38.76
69187;BME280;56301;56.864;60.554;2023-04-02T09:07:44;99206.75;;;24.47;39.83
69187;BME280;56301;56.864;60.554;2023-04-02T09:10:14;99197.97;;;24.53;40.62
69187;BME280;56301;56.864;60.554;2023-04-02T09:12:37;99199.66;;;24.54;40.28
69187;BME280;56301;56.864;60.554;2023-04-02T09:17:27;99197.13;;;24.28;42.83
69187;BME280;56301;56.864;60.554;2023-04-02T09:22:25;99201.19;;;25.20;42.12
69187;BME280;56301;56.864;60.554;2023-04-02T09:24:55;99195.50;;;25.38;40.92
69187;BME280;56301;56.864;60.554;2023-04-02T09:27:19;99200.00;;;25.54;40.09
69187;BME280;56301;56.864;60.554;2023-04-02T09:29:42;99201.94;;;25.68;40.44
69187;BME280;56301;56.864;60.554;2023-04-02T09:35:37;99202.50;;;25.87;40.15
69187;BME280;56301;56.864;60.554;2023-04-02T09:37:40;99196.19;;;25.95;38.60
69187;BME280;56301;56.864;60.554;2023-04-02T09:40:22;99195.63;;;25.99;38.84
69187;BME280;56301;56.864;60.554;2023-04-02T09:42:46;99198.47;;;26.06;38.69
69187;BME280;56301;56.864;60.554;2023-04-02T09:45:19;99193.16;;;26.12;39.25
69187;BME280;56301;56.864;60.554;2023-04-02T09:47:42;99186.81;;;26.20;38.93
69187;BME280;56301;56.864;60.554;2023-04-02T09:50:12;99200.84;;;26.24;40.17
69187;BME280;56301;56.864;60.554;2023-04-02T09:52:35;99189.34;;;26.22;39.74
69187;BME280;56301;56.864;60.554;2023-04-02T09:55:19;99194.59;;;26.23;38.58
69187;BME280;56301;56.864;60.554;2023-04-02T09:57:41;99191.53;;;26.26;38.07
69187;BME280;56301;56.864;60.554;2023-04-02T10:00:07;99198.06;;;26.32;38.98
69187;BME280;56301;56.864;60.554;2023-04-02T10:02:35;99195.19;;;26.33;38.38
69187;BME280;56301;56.864;60.554;2023-04-02T10:05:01;99193.13;;;26.35;38.87
69187;BME280;56301;56.864;60.554;2023-04-02T10:07:32;99184.81;;;26.37;38.62
69187;BME280;56301;56.864;60.554;2023-04-02T10:09:58;99186.13;;;26.41;38.45
69187;BME280;56301;56.864;60.554;2023-04-02T10:12:21;99182.38;;;26.42;38.52
69187;BME280;56301;56.864;60.554;2023-04-02T10:14:45;99190.34;;;26.44;38.46
69187;BME280;56301;56.864;60.554;2023-04-02T10:17:17;99192.16;;;26.51;36.25
69187;BME280;56301;56.864;60.554;2023-04-02T10:19:41;99177.28;;;26.62;35.92
69187;BME280;56301;56.864;60.554;2023-04-02T10:22:16;99175.69;;;26.68;35.34
69187;BME280;56301;56.864;60.554;2023-04-02T10:24:40;99174.97;;;26.74;35.27
69187;BME280;56301;56.864;60.554;2023-04-02T10:27:06;99177.31;;;26.77;35.21
69187;BME280;56301;56.864;60.554;2023-04-02T10:29:37;99172.34;;;26.80;34.17
69187;BME280;56301;56.864;60.554;2023-04-02T10:39:44;99182.25;;;26.88;32.30
69187;BME280;56301;56.864;60.554;2023-04-02T10:47:03;99179.91;;;26.85;33.76
69187;BME280;56301;56.864;60.554;2023-04-02T10:51:57;99177.38;;;26.69;32.26
69187;BME280;56301;56.864;60.554;2023-04-02T10:56:57;99160.91;;;26.55;32.57
69187;BME280;56301;56.864;60.554;2023-04-02T10:59:23;99172.50;;;26.49;33.80
69187;BME280;56301;56.864;60.554;2023-04-02T11:01:48;99166.75;;;26.44;32.95
69187;BME280;56301;56.864;60.554;2023-04-02T11:04:22;99159.00;;;26.41;31.36
69187;BME280;56301;56.864;60.554;2023-04-02T11:06:50;99166.47;;;26.39;31.13
69187;BME280;56301;56.864;60.554;2023-04-02T11:09:20;99170.78;;;26.33;28.87
69187;BME280;56301;56.864;60.554;2023-04-02T11:11:45;99170.66;;;26.27;29.56
69187;BME280;56301;56.864;60.554;2023-04-02T11:14:23;99171.03;;;26.24;28.80
69187;BME280;56301;56.864;60.554;2023-04-02T11:16:48;99166.63;;;26.23;28.43
69187;BME280;56301;56.864;60.554;2023-04-02T11:23:59;99176.88;;;26.12;28.72
69187;BME280;56301;56.864;60.554;2023-04-02T11:29:00;99173.91;;;26.07;26.89
69187;BME280;56301;56.864;60.554;2023-04-02T11:31:22;99177.13;;;26.03;26.75
69187;BME280;56301;56.864;60.554;2023-04-02T11:33:45;99177.50;;;26.00;26.36
69187;BME280;56301;56.864;60.554;2023-04-02T11:38:49;99165.16;;;25.97;25.44
69187;BME280;56301;56.864;60.554;2023-04-02T11:41:12;99164.47;;;25.95;26.30
69187;BME280;56301;56.864;60.554;2023-04-02T11:45:58;99155.88;;;25.91;27.85
69187;BME280;56301;56.864;60.554;2023-04-02T11:50:44;99163.53;;;25.88;26.62
69187;BME280;56301;56.864;60.554;2023-04-02T11:55:32;99162.56;;;25.81;26.66
69187;BME280;56301;56.864;60.554;2023-04-02T12:16:00;99149.25;;;25.71;27.40
69187;BME280;56301;56.864;60.554;2023-04-02T12:18:24;99147.72;;;25.68;26.98
69187;BME280;56301;56.864;60.554;2023-04-02T12:20:48;99154.00;;;25.69;26.74
69187;BME280;56301;56.864;60.554;2023-04-02T12:23:14;99148.75;;;25.67;26.74
69187;BME280;56301;56.864;60.554;2023-04-02T12:25:52;99149.13;;;25.64;27.29
69187;BME280;56301;56.864;60.554;2023-04-02T12:28:15;99150.13;;;25.63;26.45
69187;BME280;56301;56.864;60.554;2023-04-02T12:30:39;99157.41;;;25.63;26.61
69187;BME280;56301;56.864;60.554;2023-04-02T12:35:43;99147.97;;;25.59;27.47
69187;BME280;56301;56.864;60.554;2023-04-02T12:38:17;99150.84;;;25.57;25.43
69187;BME280;56301;56.864;60.554;2023-04-02T12:40:41;99150.03;;;25.57;27.04
69187;BME280;56301;56.864;60.554;2023-04-02T12:43:34;99147.47;;;25.55;27.78
69187;BME280;56301;56.864;60.554;2023-04-02T12:46:00;99151.22;;;25.54;26.72
69187;BME280;56301;56.864;60.554;2023-04-02T12:48:23;99154.09;;;25.53;26.73
69187;BME280;56301;56.864;60.554;2023-04-02T12:50:47;99156.34;;;25.49;26.44
69187;BME280;56301;56.864;60.554;2023-04-02T12:53:20;99162.75;;;25.48;26.45
69187;BME280;56301;56.864;60.554;2023-04-02T12:55:45;99165.47;;;25.48;26.93
69187;BME280;56301;56.864;60.554;2023-04-02T12:58:22;99159.41;;;25.46;26.89
69187;BME280;56301;56.864;60.554;2023-04-02T13:00:46;99163.09;;;25.45;28.34
69187;BME280;56301;56.864;60.554;2023-04-02T13:05:37;99163.50;;;25.42;28.04
69187;BME280;56301;56.864;60.554;2023-04-02T13:08:03;99160.94;;;25.40;27.64
69187;BME280;56301;56.864;60.554;2023-04-02T13:10:26;99160.09;;;25.40;27.68
69187;BME280;56301;56.864;60.554;2023-04-02T13:12:53;99163.84;;;25.39;25.48
69187;BME280;56301;56.864;60.554;2023-04-02T13:15:20;99154.41;;;25.35;26.62
69187;BME280;56301;56.864;60.554;2023-04-02T13:17:44;99159.13;;;25.33;26.99
69187;BME280;56301;56.864;60.554;2023-04-02T13:25:48;99164.06;;;25.29;25.96
69187;BME280;56301;56.864;60.554;2023-04-02T13:28:12;99166.97;;;25.28;27.12
69187;BME280;56301;56.864;60.554;2023-04-02T13:30:34;99167.81;;;25.28;27.13
69187;BME280;56301;56.864;60.554;2023-04-02T13:32:57;99166.09;;;25.27;26.72
69187;BME280;56301;56.864;60.554;2023-04-02T13:35:20;99169.00;;;25.26;27.67
69187;BME280;56301;56.864;60.554;2023-04-02T13:37:42;99163.09;;;25.22;26.63
69187;BME280;56301;56.864;60.554;2023-04-02T13:40:05;99164.75;;;25.23;26.83
69187;BME280;56301;56.864;60.554;2023-04-02T13:42:28;99167.66;;;25.21;26.64
69187;BME280;56301;56.864;60.554;2023-04-02T13:44:51;99168.50;;;25.22;26.99
69187;BME280;56301;56.864;60.554;2023-04-02T13:47:14;99169.69;;;25.19;26.05
69187;BME280;56301;56.864;60.554;2023-04-02T13:49:37;99168.84;;;25.19;26.84
69187;BME280;56301;56.864;60.554;2023-04-02T13:52:00;99169.19;;;25.16;27.34
69187;BME280;56301;56.864;60.554;2023-04-02T13:54:34;99178.19;;;25.16;27.94
69187;BME280;56301;56.864;60.554;2023-04-02T13:57:00;99171.25;;;25.14;28.14
69187;BME280;56301;56.864;60.554;2023-04-02T13:59:23;99169.38;;;25.14;26.33
69187;BME280;56301;56.864;60.554;2023-04-02T14:01:46;99181.25;;;25.13;26.97
69187;BME280;56301;56.864;60.554;2023-04-02T14:04:11;99173.28;;;25.12;26.53
69187;BME280;56301;56.864;60.554;2023-04-02T14:19:54;99173.28;;;25.12;26.43
69187;BME280;56301;56.864;60.554;2023-04-02T14:30:13;99174.63;;;25.08;26.63
69187;BME280;56301;56.864;60.554;2023-04-02T14:41:09;99181.06;;;25.07;26.78
69187;BME280;56301;56.864;60.554;2023-04-02T14:43:21;99172.75;;;25.08;26.63
69187;BME280;56301;56.864;60.554;2023-04-02T14:45:48;99174.81;;;25.06;26.30
69187;BME280;56301;56.864;60.554;2023-04-02T14:50:42;99174.81;;;25.06;26.35
69187;BME280;56301;56.864;60.554;2023-04-02T14:53:12;99185.66;;;25.06;26.13
69187;BME280;56301;56.864;60.554;2023-04-02T14:55:38;99182.94;;;25.06;25.84
69187;BME280;56301;56.864;60.554;2023-04-02T14:58:03;99190.22;;;25.06;26.68
69187;BME280;56301;56.864;60.554;2023-04-02T15:00:30;99188.50;;;25.05;25.86
69187;BME280;56301;56.864;60.554;2023-04-02T15:05:46;99197.47;;;25.05;25.76
69187;BME280;56301;56.864;60.554;2023-04-02T15:08:32;99200.19;;;25.05;26.20
69187;BME280;56301;56.864;60.554;2023-04-02T15:16:10;99198.69;;;25.03;25.72
69187;BME280;56301;56.864;60.554;2023-04-02T15:18:34;99198.84;;;25.01;25.58
69187;BME280;56301;56.864;60.554;2023-04-02T15:28:50;99210.03;;;24.98;25.22
69187;BME280;56301;56.864;60.554;2023-04-02T15:31:15;99212.72;;;24.98;24.76
69187;BME280;56301;56.864;60.554;2023-04-02T15:33:42;99214.78;;;24.96;25.14
69187;BME280;56301;56.864;60.554;2023-04-02T15:38:41;99216.47;;;24.97;25.14
69187;BME280;56301;56.864;60.554;2023-04-02T15:43:28;99219.16;;;24.97;25.08
69187;BME280;56301;56.864;60.554;2023-04-02T15:45:56;99224.59;;;24.97;26.57
69187;BME280;56301;56.864;60.554;2023-04-02T15:51:07;99224.59;;;24.97;25.23
69187;BME280;56301;56.864;60.554;2023-04-02T15:54:22;99216.47;;;24.97;25.63
69187;BME280;56301;56.864;60.554;2023-04-02T15:56:29;99228.31;;;24.96;25.32
69187;BME280;56301;56.864;60.554;2023-04-02T15:59:11;99225.75;;;24.94;25.63
69187;BME280;56301;56.864;60.554;2023-04-02T16:04:44;99226.78;;;24.93;24.75
69187;BME280;56301;56.864;60.554;2023-04-02T16:09:55;99232.41;;;24.92;24.97
69187;BME280;56301;56.864;60.554;2023-04-02T16:12:19;99227.81;;;24.92;25.30
69187;BME280;56301;56.864;60.554;2023-04-02T16:14:44;99233.38;;;24.91;25.46
69187;BME280;56301;56.864;60.554;2023-04-02T16:17:10;99234.59;;;24.88;24.81
69187;BME280;56301;56.864;60.554;2023-04-02T16:19:37;99238.16;;;24.89;26.08
69187;BME280;56301;56.864;60.554;2023-04-02T16:22:12;99236.28;;;24.89;25.73
69187;BME280;56301;56.864;60.554;2023-04-02T16:24:37;99232.72;;;24.89;26.09